Time;durP1;ratioP1;P1;durP2;ratioP2;P2;SDS_P1;SDS_P2;PMS_P1;PMS_P2;Temp;Humidity;BMP_temperature;BMP_pressure;BME280_temperature;BME280_humidity;BME280_pressure;Samples;Min_cycle;Max_cycle;Signal;HPM_P1;HPM_P2
2023/05/26 00:00:12;;;;;;;9.38;6.50;;;12.20;99.90;;;;;;5081727;28;20043;-60
2023/05/26 00:02:39;;;;;;;8.82;6.72;;;12.10;99.90;;;;;;5080528;28;20037;-58
2023/05/26 00:05:08;;;;;;;8.85;5.95;;;12.10;99.90;;;;;;5076035;28;20040;-57
2023/05/26 00:07:40;;;;;;;8.68;6.55;;;12.10;99.90;;;;;;5081010;28;20502;-60
2023/05/26 00:10:09;;;;;;;10.65;7.40;;;12.10;99.90;;;;;;5079592;28;20037;-59
2023/05/26 00:12:35;;;;;;;9.45;6.70;;;12.10;99.90;;;;;;5076477;28;20057;-59
2023/05/26 00:15:02;;;;;;;11.23;6.90;;;12.10;99.90;;;;;;5081614;28;20031;-61
2023/05/26 00:17:28;;;;;;;8.00;6.45;;;12.00;99.90;;;;;;5077920;28;20024;-61
2023/05/26 00:19:54;;;;;;;13.00;7.07;;;12.00;99.90;;;;;;5079045;28;20038;-60
2023/05/26 00:22:19;;;;;;;6.57;5.82;;;12.00;99.90;;;;;;5078427;28;20028;-58
2023/05/26 00:24:46;;;;;;;13.48;7.43;;;12.00;99.90;;;;;;5077572;28;20033;-60
2023/05/26 00:27:12;;;;;;;6.63;5.88;;;12.00;99.90;;;;;;5062588;28;20044;-59
2023/05/26 00:29:38;;;;;;;9.07;7.28;;;12.00;99.90;;;;;;5056161;28;20107;-60
2023/05/26 00:32:04;;;;;;;15.10;8.02;;;12.00;99.90;;;;;;5077925;28;20477;-58
2023/05/26 00:34:30;;;;;;;9.02;6.60;;;11.90;99.90;;;;;;5077890;28;20074;-60
2023/05/26 00:36:56;;;;;;;9.57;6.82;;;11.90;99.90;;;;;;5074528;28;20028;-59
2023/05/26 00:39:21;;;;;;;13.68;7.68;;;11.80;99.90;;;;;;5074849;28;20927;-59
2023/05/26 00:41:48;;;;;;;11.93;7.68;;;11.80;99.90;;;;;;5081847;28;20028;-59
2023/05/26 00:44:14;;;;;;;11.80;6.72;;;11.80;99.90;;;;;;5075615;28;20043;-60
2023/05/26 00:46:40;;;;;;;11.35;6.68;;;11.80;99.90;;;;;;5074453;28;20037;-59
2023/05/26 00:49:05;;;;;;;8.63;7.05;;;11.80;99.90;;;;;;5075404;28;20472;-59
2023/05/26 00:51:32;;;;;;;8.25;5.57;;;11.80;99.90;;;;;;5077503;28;20028;-60
2023/05/26 00:53:59;;;;;;;11.25;6.22;;;11.80;99.90;;;;;;5075977;28;20028;-60
2023/05/26 00:56:27;;;;;;;7.03;6.10;;;11.80;99.90;;;;;;5076430;28;20073;-59
2023/05/26 00:58:53;;;;;;;11.68;6.53;;;11.80;99.90;;;;;;5076537;28;20116;-59
2023/05/26 01:01:19;;;;;;;9.68;7.57;;;11.80;99.90;;;;;;5078495;28;20480;-60
2023/05/26 01:03:46;;;;;;;16.35;8.55;;;11.80;99.90;;;;;;5078170;28;20028;-59
2023/05/26 01:06:11;;;;;;;11.32;7.43;;;11.90;99.90;;;;;;5074181;28;20766;-61
2023/05/26 01:08:37;;;;;;;14.23;7.55;;;12.00;99.90;;;;;;5074432;28;20094;-60
2023/05/26 01:11:12;;;;;;;8.90;7.03;;;12.00;99.90;;;;;;5076775;28;20138;-60
2023/05/26 01:14:03;;;;;;;12.45;6.75;;;12.10;99.90;;;;;;5061461;28;20112;-59
2023/05/26 01:16:31;;;;;;;;;;;12.10;99.90;;;;;;5078194;28;20032;-59
2023/05/26 01:19:27;;;;;;;14.07;7.68;;;12.10;99.90;;;;;;5075687;28;19908;-59
2023/05/26 01:22:00;;;;;;;16.42;7.70;;;12.10;99.90;;;;;;5076394;28;20463;-60
2023/05/26 01:24:46;;;;;;;8.85;6.90;;;12.20;99.90;;;;;;5077694;28;20408;-61
2023/05/26 01:27:27;;;;;;;9.20;7.20;;;12.20;99.90;;;;;;5076902;28;20031;-60
2023/05/26 01:29:53;;;;;;;11.98;7.18;;;12.20;99.90;;;;;;5076517;28;20056;-60
2023/05/26 01:32:18;;;;;;;12.82;7.25;;;12.30;99.90;;;;;;5075595;28;20028;-60
2023/05/26 01:34:44;;;;;;;9.52;7.38;;;12.30;99.90;;;;;;5073832;28;20660;-59
2023/05/26 01:37:10;;;;;;;13.32;7.88;;;12.30;99.90;;;;;;5078471;28;20012;-59
2023/05/26 01:39:36;;;;;;;15.00;7.82;;;12.30;99.90;;;;;;5078008;28;20060;-59
2023/05/26 01:42:31;;;;;;;9.40;6.43;;;12.30;99.90;;;;;;5076288;28;20483;-59
2023/05/26 01:45:04;;;;;;;12.27;7.60;;;12.20;99.90;;;;;;5073579;28;20040;-59
2023/05/26 01:47:31;;;;;;;12.15;6.25;;;12.10;99.90;;;;;;5074264;28;20075;-59
2023/05/26 01:50:01;;;;;;;9.73;6.75;;;12.10;99.90;;;;;;5074941;28;20477;-60
2023/05/26 01:52:27;;;;;;;10.68;7.07;;;12.00;99.90;;;;;;5077364;28;20043;-59
2023/05/26 01:55:00;;;;;;;10.52;7.30;;;11.90;99.90;;;;;;5074557;28;20032;-59
2023/05/26 01:57:28;;;;;;;12.30;7.18;;;11.90;99.90;;;;;;5077705;28;20027;-60
2023/05/26 01:59:55;;;;;;;10.32;6.88;;;11.80;99.90;;;;;;5074572;28;20048;-59
2023/05/26 02:02:21;;;;;;;11.43;7.75;;;11.80;99.90;;;;;;5075986;28;20090;-59
2023/05/26 02:04:46;;;;;;;15.13;8.43;;;11.80;99.90;;;;;;5074680;28;20473;-60
2023/05/26 02:07:12;;;;;;;14.65;7.75;;;11.80;99.90;;;;;;5073131;28;20032;-58
2023/05/26 02:09:37;;;;;;;11.35;7.35;;;11.70;99.90;;;;;;5065516;28;20056;-59
2023/05/26 02:12:06;;;;;;;11.35;7.20;;;11.70;99.90;;;;;;5076614;28;20020;-59
2023/05/26 02:14:31;;;;;;;13.95;7.40;;;11.60;99.90;;;;;;5073293;28;20127;-59
2023/05/26 02:16:57;;;;;;;12.25;6.82;;;11.60;99.90;;;;;;5075760;28;20024;-60
2023/05/26 02:19:25;;;;;;;9.18;7.53;;;11.50;99.90;;;;;;5075403;28;20184;-60
2023/05/26 02:21:50;;;;;;;12.07;7.97;;;11.40;99.90;;;;;;5072773;28;20685;-60
2023/05/26 02:24:16;;;;;;;15.35;8.70;;;11.20;99.90;;;;;;5073900;28;20024;-60
2023/05/26 02:26:42;;;;;;;11.35;8.57;;;11.10;99.90;;;;;;5076125;28;20047;-61
2023/05/26 02:29:07;;;;;;;11.57;7.95;;;11.00;99.90;;;;;;5074136;28;20139;-59
2023/05/26 02:31:34;;;;;;;12.52;8.13;;;10.80;99.90;;;;;;5073150;28;20108;-59
2023/05/26 02:34:01;;;;;;;11.40;8.13;;;10.80;99.90;;;;;;5072964;28;20017;-59
2023/05/26 02:36:27;;;;;;;9.45;8.55;;;10.70;99.90;;;;;;5076366;28;20032;-60
2023/05/26 02:38:52;;;;;;;11.90;9.52;;;10.60;99.90;;;;;;5073922;28;20036;-59
2023/05/26 02:41:18;;;;;;;10.25;8.30;;;10.50;99.90;;;;;;5075588;28;20374;-60
2023/05/26 02:43:44;;;;;;;12.13;8.93;;;10.50;99.90;;;;;;5077154;28;20024;-59
2023/05/26 02:46:09;;;;;;;11.48;9.15;;;10.40;99.90;;;;;;5075765;28;20025;-60
2023/05/26 02:48:35;;;;;;;11.88;8.93;;;10.30;99.90;;;;;;5074278;28;20029;-60
2023/05/26 02:51:01;;;;;;;17.17;9.43;;;10.30;99.90;;;;;;5078410;28;20036;-60
2023/05/26 02:53:27;;;;;;;17.48;10.75;;;10.20;99.90;;;;;;5074681;28;20078;-59
2023/05/26 02:55:52;;;;;;;11.82;9.73;;;10.20;99.90;;;;;;5074776;28;20024;-59
2023/05/26 02:58:18;;;;;;;13.07;9.10;;;10.20;99.90;;;;;;5075159;28;20099;-59
2023/05/26 03:00:43;;;;;;;19.15;9.85;;;10.10;99.90;;;;;;5075303;28;20428;-59
2023/05/26 03:03:09;;;;;;;14.50;9.52;;;10.10;99.90;;;;;;5076584;28;20028;-58
2023/05/26 03:05:34;;;;;;;10.93;9.20;;;10.10;99.90;;;;;;5073293;28;20039;-60
2023/05/26 03:08:03;;;;;;;13.57;9.73;;;10.10;99.90;;;;;;5077239;28;20020;-57
2023/05/26 03:10:28;;;;;;;13.50;9.15;;;10.00;99.90;;;;;;5076369;28;20108;-60
2023/05/26 03:12:54;;;;;;;14.05;9.73;;;10.00;99.90;;;;;;5077081;28;20135;-59
2023/05/26 03:15:20;;;;;;;12.35;10.23;;;9.90;99.90;;;;;;5076200;28;20073;-60
2023/05/26 03:17:45;;;;;;;17.50;10.63;;;9.90;99.90;;;;;;5077404;28;20676;-59
2023/05/26 03:20:11;;;;;;;10.57;9.27;;;9.80;99.90;;;;;;5077698;28;20126;-61
2023/05/26 03:22:37;;;;;;;9.75;8.57;;;9.80;99.90;;;;;;5079708;28;20024;-60
2023/05/26 03:25:03;;;;;;;9.93;8.77;;;9.80;99.90;;;;;;5077514;28;20031;-60
2023/05/26 03:27:28;;;;;;;14.48;9.20;;;9.80;99.90;;;;;;5076058;28;20507;-60
2023/05/26 03:29:54;;;;;;;14.32;10.13;;;9.80;99.90;;;;;;5078346;28;20048;-60
2023/05/26 03:32:20;;;;;;;15.02;10.50;;;9.80;99.90;;;;;;5077773;28;20020;-59
2023/05/26 03:34:46;;;;;;;21.80;10.90;;;9.70;99.90;;;;;;5078584;28;20455;-60
2023/05/26 03:37:11;;;;;;;14.35;8.98;;;9.70;99.90;;;;;;5078121;28;20017;-59
2023/05/26 03:39:37;;;;;;;14.38;10.40;;;9.70;99.90;;;;;;5082479;28;20829;-60
2023/05/26 03:42:03;;;;;;;17.98;9.95;;;9.70;99.90;;;;;;5081401;28;20036;-58
2023/05/26 03:44:28;;;;;;;13.63;10.10;;;9.70;99.90;;;;;;5078932;28;20032;-60
2023/05/26 03:46:54;;;;;;;15.45;10.40;;;9.70;99.90;;;;;;5075769;28;20113;-60
2023/05/26 03:49:20;;;;;;;10.80;9.73;;;9.60;99.90;;;;;;5078686;28;20024;-58
2023/05/26 03:51:46;;;;;;;16.27;10.40;;;9.60;99.90;;;;;;5076610;28;20020;-58
2023/05/26 03:54:11;;;;;;;11.48;9.93;;;9.60;99.90;;;;;;5078337;28;20029;-59
2023/05/26 03:56:37;;;;;;;9.93;8.90;;;9.60;99.90;;;;;;5076456;28;20387;-59
2023/05/26 03:59:03;;;;;;;15.82;10.75;;;9.60;99.90;;;;;;5079182;28;20028;-59
2023/05/26 04:01:29;;;;;;;17.27;10.52;;;9.60;99.90;;;;;;5078893;28;20096;-59
2023/05/26 04:03:55;;;;;;;14.07;8.90;;;9.60;99.90;;;;;;5075854;28;20040;-59
2023/05/26 04:06:22;;;;;;;16.80;10.02;;;9.70;99.90;;;;;;5077704;28;20024;-60
2023/05/26 04:08:48;;;;;;;11.23;9.38;;;9.70;99.90;;;;;;5079937;28;20095;-58
2023/05/26 04:11:15;;;;;;;15.63;9.77;;;9.70;99.90;;;;;;5078203;28;20055;-60
2023/05/26 04:13:40;;;;;;;12.88;9.23;;;9.70;99.90;;;;;;5076308;28;20039;-60
2023/05/26 04:16:06;;;;;;;10.57;8.95;;;9.70;99.90;;;;;;5078835;28;20036;-59
2023/05/26 04:18:32;;;;;;;14.32;9.10;;;9.70;99.90;;;;;;5076390;28;20032;-60
2023/05/26 04:20:58;;;;;;;14.18;10.05;;;9.70;99.90;;;;;;5074976;28;20045;-60
2023/05/26 04:23:24;;;;;;;15.05;10.13;;;9.70;99.90;;;;;;5077696;28;20519;-58
2023/05/26 04:25:50;;;;;;;15.25;9.25;;;9.80;99.90;;;;;;5076469;28;20497;-60
2023/05/26 04:28:16;;;;;;;10.48;9.48;;;9.80;99.90;;;;;;5077952;28;20080;-59
2023/05/26 04:30:42;;;;;;;11.90;9.32;;;9.80;99.90;;;;;;5077659;28;20028;-59
2023/05/26 04:33:09;;;;;;;11.48;9.45;;;9.80;99.90;;;;;;5075169;28;20040;-60
2023/05/26 04:35:35;;;;;;;10.65;9.05;;;9.80;99.90;;;;;;5076764;28;20111;-60
2023/05/26 04:38:01;;;;;;;12.77;9.40;;;9.90;99.90;;;;;;5076341;28;20154;-59
2023/05/26 04:40:27;;;;;;;12.82;8.98;;;9.90;99.90;;;;;;5077841;28;20028;-59
2023/05/26 04:42:53;;;;;;;16.95;10.38;;;10.00;99.90;;;;;;5064141;28;20036;-59
2023/05/26 04:45:18;;;;;;;10.52;8.35;;;10.00;99.90;;;;;;5077097;28;20039;-61
2023/05/26 04:47:45;;;;;;;19.63;9.57;;;10.00;99.90;;;;;;5075632;28;20408;-60
2023/05/26 04:50:16;;;;;;;13.82;9.55;;;10.10;99.90;;;;;;5075853;28;20058;-59
2023/05/26 04:52:42;;;;;;;22.85;10.85;;;10.10;99.90;;;;;;5077969;28;20020;-59
2023/05/26 04:55:08;;;;;;;11.23;9.45;;;10.20;99.90;;;;;;5079610;28;20036;-59
2023/05/26 04:57:34;;;;;;;10.88;8.90;;;10.20;99.90;;;;;;5077367;28;20034;-60
2023/05/26 05:00:00;;;;;;;12.70;8.18;;;10.30;99.90;;;;;;5076279;28;20111;-59
2023/05/26 05:02:26;;;;;;;12.45;8.27;;;10.40;99.90;;;;;;5075016;28;20074;-60
2023/05/26 05:04:52;;;;;;;9.77;8.75;;;10.40;99.90;;;;;;5057483;28;20020;-61
2023/05/26 05:07:18;;;;;;;11.95;9.32;;;10.50;99.90;;;;;;5079179;28;20054;-59
2023/05/26 05:09:44;;;;;;;12.32;8.50;;;10.50;99.90;;;;;;5077952;28;20484;-58
2023/05/26 05:12:10;;;;;;;11.90;8.38;;;10.60;99.90;;;;;;5077196;28;20028;-59
2023/05/26 05:14:35;;;;;;;15.48;8.85;;;10.70;99.90;;;;;;5060211;28;20077;-60
2023/05/26 05:17:02;;;;;;;13.80;10.18;;;10.80;99.90;;;;;;5057280;28;21040;-60
2023/05/26 05:19:28;;;;;;;16.60;8.95;;;10.90;99.90;;;;;;5079321;28;20028;-60
2023/05/26 05:21:54;;;;;;;11.63;8.38;;;11.00;99.90;;;;;;5065678;28;20036;-59
2023/05/26 05:24:20;;;;;;;12.00;9.57;;;11.00;99.90;;;;;;5053414;28;20423;-60
2023/05/26 05:26:45;;;;;;;9.75;8.45;;;11.10;99.90;;;;;;5076415;28;20455;-59
2023/05/26 05:29:11;;;;;;;10.93;9.77;;;11.20;99.90;;;;;;5056921;28;20957;-59
2023/05/26 05:31:37;;;;;;;12.98;9.77;;;11.30;99.90;;;;;;5061130;28;20395;-59
2023/05/26 05:34:02;;;;;;;10.23;8.25;;;11.40;99.90;;;;;;5075821;28;20038;-59
2023/05/26 05:36:28;;;;;;;9.65;8.75;;;11.50;99.90;;;;;;5074525;28;20052;-59
2023/05/26 05:38:54;;;;;;;13.43;9.55;;;11.60;99.90;;;;;;5074602;28;20090;-59
2023/05/26 05:41:20;;;;;;;14.05;8.85;;;11.80;99.90;;;;;;5075988;28;20028;-59
2023/05/26 05:43:45;;;;;;;14.40;8.80;;;11.80;99.90;;;;;;5077118;28;20054;-59
2023/05/26 05:46:11;;;;;;;12.65;8.88;;;12.00;99.90;;;;;;5061454;28;20016;-59
2023/05/26 05:48:39;;;;;;;13.50;7.90;;;12.10;99.90;;;;;;5072520;28;20043;-59
2023/05/26 05:51:05;;;;;;;9.65;7.68;;;12.20;99.90;;;;;;5077934;28;20809;-60
2023/05/26 05:53:30;;;;;;;12.90;8.10;;;12.30;99.90;;;;;;5081292;28;20036;-59
2023/05/26 05:55:56;;;;;;;10.18;7.43;;;12.40;99.90;;;;;;5078214;28;20553;-59
2023/05/26 05:58:22;;;;;;;10.80;7.65;;;12.60;99.90;;;;;;5078258;28;20111;-61
2023/05/26 06:00:47;;;;;;;9.13;7.82;;;12.70;99.90;;;;;;5077886;28;20031;-60
2023/05/26 06:03:13;;;;;;;13.60;8.05;;;12.80;99.90;;;;;;5076713;28;20063;-59
2023/05/26 06:05:40;;;;;;;11.93;7.22;;;13.00;99.90;;;;;;5077775;28;20028;-60
2023/05/26 06:08:05;;;;;;;10.13;7.13;;;13.10;99.90;;;;;;5076095;28;20031;-61
2023/05/26 06:10:31;;;;;;;11.48;8.25;;;13.30;99.90;;;;;;5061734;28;20131;-60
2023/05/26 06:12:57;;;;;;;11.82;7.95;;;13.50;99.90;;;;;;5075852;28;20024;-60
2023/05/26 06:15:22;;;;;;;10.20;7.07;;;13.60;99.90;;;;;;5081953;28;20079;-60
2023/05/26 06:17:48;;;;;;;18.75;7.20;;;13.80;99.90;;;;;;5077647;28;20059;-61
2023/05/26 06:20:14;;;;;;;14.07;7.10;;;13.90;99.90;;;;;;5078882;28;21073;-60
2023/05/26 06:22:40;;;;;;;9.88;6.53;;;14.10;99.90;;;;;;5081738;28;20184;-60
2023/05/26 06:25:06;;;;;;;10.55;6.47;;;14.20;99.90;;;;;;5077919;28;20055;-60
2023/05/26 06:27:32;;;;;;;15.43;7.30;;;14.40;99.90;;;;;;5077570;28;20607;-60
2023/05/26 06:29:58;;;;;;;10.27;6.53;;;14.40;99.90;;;;;;5077163;28;20086;-61
2023/05/26 06:32:23;;;;;;;9.52;7.28;;;14.50;99.90;;;;;;5077468;28;20025;-59
2023/05/26 06:34:49;;;;;;;10.18;6.43;;;14.60;99.90;;;;;;5079349;28;20056;-61
2023/05/26 06:37:15;;;;;;;10.52;6.60;;;14.70;99.90;;;;;;5078809;28;20005;-60
2023/05/26 06:39:40;;;;;;;10.93;7.30;;;14.80;99.90;;;;;;5076648;28;20064;-60
2023/05/26 06:42:06;;;;;;;10.60;7.05;;;14.90;99.90;;;;;;5079370;28;20123;-60
2023/05/26 06:44:33;;;;;;;14.85;6.80;;;14.90;99.90;;;;;;5078854;28;20094;-63
2023/05/26 06:47:00;;;;;;;8.25;5.68;;;15.00;99.90;;;;;;5077899;28;20019;-59
2023/05/26 06:49:25;;;;;;;10.15;6.50;;;15.10;99.90;;;;;;5079669;28;20040;-60
2023/05/26 06:51:51;;;;;;;11.32;6.55;;;15.20;99.90;;;;;;5082745;28;20080;-61
2023/05/26 06:54:17;;;;;;;11.07;5.60;;;15.30;99.90;;;;;;5081409;28;20093;-60
2023/05/26 06:56:42;;;;;;;12.55;7.35;;;15.40;99.90;;;;;;5085166;28;20020;-60
2023/05/26 06:59:08;;;;;;;11.75;6.97;;;15.50;99.90;;;;;;5083749;28;20041;-60
2023/05/26 07:01:33;;;;;;;13.00;6.97;;;15.50;99.90;;;;;;5080442;28;20119;-60
2023/05/26 07:03:59;;;;;;;10.23;6.55;;;15.60;99.90;;;;;;5082635;28;20027;-60
2023/05/26 07:06:25;;;;;;;12.93;6.22;;;15.80;99.90;;;;;;5082548;28;20108;-60
2023/05/26 07:08:50;;;;;;;13.77;7.47;;;15.80;99.90;;;;;;5082550;28;20365;-60
2023/05/26 07:11:16;;;;;;;8.20;6.72;;;15.90;99.90;;;;;;5079439;28;20356;-60
2023/05/26 07:13:41;;;;;;;10.05;5.95;;;15.90;99.90;;;;;;5083743;28;20020;-59
2023/05/26 07:16:07;;;;;;;13.18;6.97;;;15.90;99.90;;;;;;5078621;28;20462;-59
2023/05/26 07:18:33;;;;;;;11.20;6.13;;;16.00;99.90;;;;;;5080085;28;20426;-60
2023/05/26 07:20:58;;;;;;;14.30;7.53;;;16.00;99.90;;;;;;5079554;28;20021;-60
2023/05/26 07:23:24;;;;;;;10.77;6.32;;;16.00;99.90;;;;;;5084926;28;20029;-59
2023/05/26 07:25:50;;;;;;;8.40;5.70;;;16.00;99.90;;;;;;5080343;28;20114;-60
2023/05/26 07:28:15;;;;;;;10.95;6.65;;;16.10;99.90;;;;;;5081576;28;20020;-60
2023/05/26 07:30:41;;;;;;;15.20;6.03;;;16.10;99.90;;;;;;5082808;28;20037;-60
2023/05/26 07:33:07;;;;;;;10.15;5.78;;;16.20;99.90;;;;;;5074839;28;20033;-60
2023/05/26 07:35:32;;;;;;;10.18;6.90;;;16.30;99.90;;;;;;5062478;28;20357;-60
2023/05/26 07:37:58;;;;;;;10.68;5.80;;;16.40;99.90;;;;;;5080284;28;20028;-60
2023/05/26 07:40:24;;;;;;;8.00;5.70;;;16.50;99.90;;;;;;5078171;28;20020;-59
2023/05/26 07:42:50;;;;;;;7.28;5.70;;;16.50;99.90;;;;;;5078411;28;20016;-60
2023/05/26 07:45:15;;;;;;;15.98;5.93;;;16.60;99.90;;;;;;5077300;28;20028;-60
2023/05/26 07:47:41;;;;;;;9.77;5.35;;;16.70;99.90;;;;;;5078594;28;20081;-60
2023/05/26 07:50:08;;;;;;;10.82;6.03;;;16.80;99.90;;;;;;5078563;28;20728;-59
2023/05/26 07:52:34;;;;;;;9.43;5.75;;;16.90;99.90;;;;;;5082196;28;20028;-60
2023/05/26 07:55:00;;;;;;;13.77;5.90;;;17.00;99.90;;;;;;5078121;28;20036;-61
2023/05/26 07:57:25;;;;;;;10.07;6.18;;;17.10;99.90;;;;;;5075333;28;20017;-60
2023/05/26 07:59:51;;;;;;;7.85;5.55;;;17.20;99.90;;;;;;5077424;28;20123;-61
2023/05/26 08:02:17;;;;;;;7.78;5.38;;;17.30;99.90;;;;;;5078945;28;20016;-59
2023/05/26 08:04:42;;;;;;;9.77;5.30;;;17.30;99.90;;;;;;5079238;28;20020;-59
2023/05/26 08:07:08;;;;;;;11.77;5.45;;;17.40;99.90;;;;;;5077459;28;20483;-61
2023/05/26 08:09:34;;;;;;;14.93;5.72;;;17.40;99.90;;;;;;5074383;28;20081;-61
2023/05/26 08:11:59;;;;;;;10.38;5.05;;;17.50;99.90;;;;;;5077967;28;20070;-60
2023/05/26 08:14:26;;;;;;;11.00;5.32;;;17.60;98.50;;;;;;5078773;28;20085;-61
2023/05/26 08:16:52;;;;;;;8.82;5.97;;;17.60;99.90;;;;;;5082336;28;20089;-59
2023/05/26 08:19:17;;;;;;;12.40;5.95;;;17.70;97.80;;;;;;5078868;28;20024;-60
2023/05/26 08:21:43;;;;;;;9.18;6.35;;;17.70;98.20;;;;;;5074077;28;20079;-59
2023/05/26 08:24:09;;;;;;;11.00;6.47;;;17.70;98.50;;;;;;5076836;28;20020;-59
2023/05/26 08:26:34;;;;;;;9.50;4.93;;;17.80;98.30;;;;;;5074097;28;20435;-60
2023/05/26 08:29:00;;;;;;;10.60;5.80;;;17.80;97.30;;;;;;5077290;28;20103;-61
2023/05/26 08:31:25;;;;;;;10.07;5.93;;;17.90;97.40;;;;;;5077397;28;20044;-60
2023/05/26 08:33:53;;;;;;;10.27;5.75;;;17.90;96.10;;;;;;5078580;28;20200;-60
2023/05/26 08:36:19;;;;;;;5.95;5.15;;;18.00;95.30;;;;;;5075927;28;20266;-59
2023/05/26 08:38:45;;;;;;;10.02;5.43;;;18.10;94.60;;;;;;5080877;28;20495;-59
2023/05/26 08:41:17;;;;;;;8.38;5.97;;;18.10;95.70;;;;;;5079605;28;20058;-59
2023/05/26 08:43:51;;;;;;;7.78;4.53;;;18.30;94.10;;;;;;5078659;28;20910;-59
2023/05/26 08:46:17;;;;;;;11.63;5.10;;;18.30;95.00;;;;;;5080414;28;20039;-60
2023/05/26 08:48:44;;;;;;;7.93;5.07;;;18.50;94.00;;;;;;5076263;28;20032;-59
2023/05/26 08:51:11;;;;;;;11.02;5.35;;;18.50;93.90;;;;;;5079156;28;20048;-61
2023/05/26 08:53:39;;;;;;;7.38;5.32;;;18.70;94.70;;;;;;5076103;28;20055;-60
2023/05/26 08:56:06;;;;;;;8.88;5.25;;;18.80;93.80;;;;;;5076948;28;20029;-60
2023/05/26 08:58:33;;;;;;;9.18;5.70;;;18.80;92.90;;;;;;5058498;28;20024;-59
2023/05/26 09:01:00;;;;;;;8.00;4.90;;;18.90;92.00;;;;;;5059551;28;20021;-59
2023/05/26 09:03:26;;;;;;;8.35;5.10;;;18.90;93.60;;;;;;5081437;28;20089;-59
2023/05/26 09:05:52;;;;;;;7.43;4.30;;;19.10;93.80;;;;;;5075656;28;20156;-62
2023/05/26 09:08:17;;;;;;;7.40;4.30;;;19.20;91.30;;;;;;5074924;28;20028;-59
2023/05/26 09:10:43;;;;;;;11.60;4.93;;;19.30;90.90;;;;;;5079494;28;20087;-60
2023/05/26 09:13:10;;;;;;;5.78;3.78;;;19.50;92.10;;;;;;5078972;28;20859;-60
2023/05/26 09:15:37;;;;;;;8.18;4.22;;;19.80;91.80;;;;;;5081300;28;20025;-59
2023/05/26 09:18:11;;;;;;;6.53;4.57;;;20.00;91.10;;;;;;5080191;28;20020;-60
2023/05/26 09:20:45;;;;;;;6.95;4.78;;;20.20;90.70;;;;;;5075455;28;20629;-60
2023/05/26 09:23:11;;;;;;;7.55;4.60;;;20.40;87.70;;;;;;5075985;28;20023;-61
2023/05/26 09:25:38;;;;;;;6.63;4.57;;;20.50;87.40;;;;;;5076995;28;20467;-61
2023/05/26 09:28:08;;;;;;;17.73;5.20;;;20.60;79.20;;;;;;5080890;28;20497;-60
2023/05/26 09:30:45;;;;;;;11.70;5.22;;;20.70;81.90;;;;;;5080928;28;20036;-61
2023/05/26 09:33:12;;;;;;;7.15;4.53;;;20.70;85.30;;;;;;5076017;28;20024;-60
2023/05/26 09:35:40;;;;;;;7.22;4.53;;;20.90;84.70;;;;;;5079402;28;20450;-61
2023/05/26 09:38:08;;;;;;;6.78;4.30;;;21.10;80.00;;;;;;5071348;28;20035;-60
2023/05/26 09:40:34;;;;;;;7.90;4.53;;;21.30;82.20;;;;;;5081334;28;20082;-61
2023/05/26 09:43:01;;;;;;;5.70;4.03;;;21.60;79.80;;;;;;5077766;28;20059;-61
2023/05/26 09:45:36;;;;;;;7.45;4.03;;;21.80;76.70;;;;;;5079633;28;20032;-61
2023/05/26 09:48:06;;;;;;;9.43;4.80;;;21.90;75.80;;;;;;5079513;28;20376;-59
2023/05/26 09:50:34;;;;;;;6.72;4.15;;;21.90;74.50;;;;;;5079387;28;20052;-61
2023/05/26 09:53:02;;;;;;;6.18;4.00;;;21.70;73.70;;;;;;5080139;28;20023;-60
2023/05/26 09:55:32;;;;;;;6.13;4.20;;;21.70;74.30;;;;;;5076707;28;20066;-60
2023/05/26 09:58:11;;;;;;;10.43;4.07;;;21.70;79.20;;;;;;5076900;28;20095;-60
2023/05/26 10:00:40;;;;;;;5.18;3.58;;;21.80;74.00;;;;;;5077442;28;20599;-60
2023/05/26 10:03:10;;;;;;;9.43;3.85;;;21.90;70.80;;;;;;5079660;28;20036;-61
2023/05/26 10:05:47;;;;;;;6.43;3.42;;;22.00;74.10;;;;;;5076137;28;20112;-59
2023/05/26 10:08:17;;;;;;;7.25;3.72;;;22.10;72.10;;;;;;5077823;28;20504;-60
2023/05/26 10:10:44;;;;;;;5.90;3.53;;;22.30;69.80;;;;;;5074526;28;20068;-60
2023/05/26 10:13:10;;;;;;;7.15;3.75;;;22.50;70.10;;;;;;5075286;28;20541;-60
2023/05/26 10:15:36;;;;;;;7.90;3.70;;;22.70;71.90;;;;;;5075852;28;20060;-60
2023/05/26 10:18:02;;;;;;;5.22;3.70;;;22.90;70.80;;;;;;5074676;28;20071;-61
2023/05/26 10:20:30;;;;;;;8.95;3.42;;;22.90;67.00;;;;;;5076490;28;20036;-60
2023/05/26 10:23:01;;;;;;;7.05;3.78;;;22.70;64.40;;;;;;5074731;28;20024;-61
2023/05/26 10:25:42;;;;;;;7.22;4.07;;;22.30;68.90;;;;;;5080202;28;20023;-60
2023/05/26 10:28:32;;;;;;;4.05;2.85;;;21.90;70.20;;;;;;5075803;28;20040;-60
2023/05/26 10:31:00;;;;;;;5.30;3.85;;;21.70;67.10;;;;;;5074543;28;20036;-60
2023/05/26 10:33:41;;;;;;;7.05;3.92;;;21.60;68.10;;;;;;5073262;28;20663;-60
2023/05/26 10:36:14;;;;;;;7.10;4.00;;;21.70;70.40;;;;;;5077726;28;20069;-60
2023/05/26 10:38:45;;;;;;;4.32;3.10;;;21.90;69.60;;;;;;5076013;28;20032;-60
2023/05/26 10:41:11;;;;;;;5.35;3.40;;;22.20;69.80;;;;;;5075255;28;20040;-60
2023/05/26 10:43:37;;;;;;;6.68;3.72;;;22.50;67.80;;;;;;5079483;28;20025;-61
2023/05/26 10:46:05;;;;;;;11.82;3.90;;;22.80;65.30;;;;;;5074689;28;20020;-61
2023/05/26 10:48:40;;;;;;;9.13;3.70;;;23.10;66.20;;;;;;5078074;28;20021;-61
2023/05/26 10:51:14;;;;;;;7.93;3.67;;;23.10;66.00;;;;;;5076298;28;20120;-61
2023/05/26 10:53:46;;;;;;;5.95;3.10;;;22.90;67.80;;;;;;5074858;28;20040;-60
2023/05/26 10:56:14;;;;;;;7.28;4.05;;;22.90;68.50;;;;;;5076541;28;20095;-60
2023/05/26 10:58:50;;;;;;;4.80;3.33;;;22.90;68.30;;;;;;5076847;28;20036;-60
2023/05/26 11:01:28;;;;;;;5.32;3.70;;;23.00;68.60;;;;;;5079358;28;20120;-61
2023/05/26 11:04:12;;;;;;;7.93;4.18;;;23.00;64.20;;;;;;5078593;28;20029;-60
2023/05/26 11:07:12;;;;;;;9.60;4.18;;;22.70;65.30;;;;;;5074574;28;20036;-61
2023/05/26 11:09:38;;;;;;;6.38;3.80;;;22.40;66.00;;;;;;5045311;28;20032;-61
2023/05/26 11:12:06;;;;;;;8.55;3.75;;;22.30;67.90;;;;;;5077181;28;20047;-61
2023/05/26 11:14:34;;;;;;;8.15;3.83;;;22.30;67.40;;;;;;5075529;28;20036;-61
2023/05/26 11:17:01;;;;;;;6.70;3.90;;;22.30;66.10;;;;;;5075649;28;20087;-61
2023/05/26 11:19:31;;;;;;;8.15;4.25;;;22.30;64.60;;;;;;5075964;28;20384;-61
2023/05/26 11:21:58;;;;;;;7.95;3.85;;;22.20;68.40;;;;;;5062224;28;20109;-61
2023/05/26 11:24:24;;;;;;;4.88;3.65;;;22.30;66.30;;;;;;5075324;28;20057;-59
2023/05/26 11:26:50;;;;;;;6.78;3.42;;;22.40;65.20;;;;;;5075236;28;20463;-62
2023/05/26 11:29:16;;;;;;;6.60;3.15;;;22.60;64.80;;;;;;5075750;28;20040;-60
2023/05/26 11:31:46;;;;;;;7.93;3.20;;;22.60;64.70;;;;;;5075434;28;20763;-61
2023/05/26 11:34:12;;;;;;;6.03;3.85;;;22.70;61.80;;;;;;5076186;28;20032;-61
2023/05/26 11:36:39;;;;;;;7.40;3.65;;;22.70;61.70;;;;;;5071302;28;20025;-62
2023/05/26 11:39:06;;;;;;;6.20;3.63;;;22.60;63.20;;;;;;5076460;28;20027;-61
2023/05/26 11:41:31;;;;;;;6.68;4.05;;;22.60;63.30;;;;;;5077649;28;20032;-60
2023/05/26 11:43:58;;;;;;;8.23;3.80;;;22.60;61.80;;;;;;5080656;28;20070;-59
2023/05/26 11:46:29;;;;;;;9.27;3.63;;;22.60;59.80;;;;;;5076045;28;20032;-60
2023/05/26 11:48:54;;;;;;;8.68;3.30;;;22.40;59.40;;;;;;5081068;28;20105;-59
2023/05/26 11:51:21;;;;;;;5.78;3.30;;;22.40;61.30;;;;;;5078516;28;20120;-60
2023/05/26 11:53:57;;;;;;;5.28;3.30;;;22.30;61.40;;;;;;5080882;28;20028;-60
2023/05/26 11:56:33;;;;;;;8.52;3.88;;;22.40;61.10;;;;;;5079867;28;20025;-60
2023/05/26 11:59:00;;;;;;;5.97;3.22;;;22.50;61.70;;;;;;5079296;28;20016;-60
2023/05/26 12:01:26;;;;;;;4.93;3.10;;;22.60;61.50;;;;;;5081082;28;20559;-61
2023/05/26 12:03:52;;;;;;;7.15;3.50;;;22.80;60.70;;;;;;5081423;28;20036;-61
2023/05/26 12:06:18;;;;;;;12.50;3.30;;;22.80;58.10;;;;;;5080679;28;20078;-60
2023/05/26 12:08:49;;;;;;;10.27;3.58;;;22.60;58.40;;;;;;5082710;28;20079;-60
2023/05/26 12:11:16;;;;;;;8.25;3.50;;;22.50;60.20;;;;;;5084796;28;20585;-60
2023/05/26 12:13:41;;;;;;;8.65;3.30;;;22.40;59.00;;;;;;5079338;28;20036;-59
2023/05/26 12:16:23;;;;;;;7.97;3.25;;;22.40;58.60;;;;;;5083146;28;20055;-61
2023/05/26 12:18:54;;;;;;;10.18;3.55;;;22.30;60.50;;;;;;5078114;28;20037;-61
2023/05/26 12:21:21;;;;;;;10.82;3.20;;;22.40;57.80;;;;;;5076651;28;20036;-60
2023/05/26 12:23:46;;;;;;;8.77;3.33;;;22.40;59.20;;;;;;5078164;28;20036;-60
2023/05/26 12:26:16;;;;;;;8.30;2.88;;;22.40;58.70;;;;;;5078644;28;20043;-61
2023/05/26 12:28:43;;;;;;;8.48;2.95;;;22.50;60.90;;;;;;5076402;28;20127;-60
2023/05/26 12:31:09;;;;;;;6.10;3.00;;;22.50;58.20;;;;;;5075284;28;20045;-60
2023/05/26 12:33:35;;;;;;;4.45;2.80;;;22.60;60.00;;;;;;5075863;28;20033;-59
2023/05/26 12:36:01;;;;;;;8.00;3.20;;;22.70;54.00;;;;;;5079243;28;20090;-60
2023/05/26 12:38:27;;;;;;;8.95;3.55;;;22.60;57.50;;;;;;5079993;28;20492;-60
2023/05/26 12:40:53;;;;;;;7.97;3.97;;;22.70;58.10;;;;;;5079173;28;20100;-60
2023/05/26 12:43:21;;;;;;;7.93;3.75;;;22.70;57.80;;;;;;5075205;28;20204;-61